Time;durP1;ratioP1;P1;durP2;ratioP2;P2;SDS_P1;SDS_P2;PMS_P1;PMS_P2;Temp;Humidity;BMP_temperature;BMP_pressure;BME280_temperature;BME280_humidity;BME280_pressure;Samples;Min_cycle;Max_cycle;Signal;HPM_P1;HPM_P2
2023/07/11 00:01:01;;;;;;;8.43;3.85;;;17.90;99.90;;;-144.05;68.37;56876.44;5077294;28;20047;-86
2023/07/11 00:03:27;;;;;;;6.80;3.42;;;17.90;99.90;;;-144.05;67.81;56880.69;5077425;28;20095;-86
2023/07/11 00:06:05;;;;;;;8.25;3.70;;;18.00;99.90;;;-144.05;67.92;56872.19;5075577;28;20024;-85
2023/07/11 00:08:31;;;;;;;7.93;3.58;;;18.00;99.90;;;-144.05;67.34;56878.56;5064938;28;20024;-86
2023/07/11 00:10:57;;;;;;;7.28;3.47;;;18.00;99.90;;;-144.05;66.88;56891.31;5064113;28;20087;-85
2023/07/11 00:13:23;;;;;;;9.40;3.38;;;18.00;99.90;;;-144.05;66.46;56884.94;5078539;28;20024;-84
2023/07/11 00:16:10;;;;;;;8.45;3.10;;;18.10;99.90;;;-144.05;65.81;56878.56;5078783;28;20021;-87
2023/07/11 00:18:36;;;;;;;6.15;3.20;;;18.10;99.90;;;-144.05;64.99;56870.06;5060382;28;20043;-86
2023/07/11 00:21:04;;;;;;;5.82;3.05;;;18.20;99.90;;;-144.05;64.40;56865.81;5078476;28;20044;-83
2023/07/11 00:23:31;;;;;;;6.30;3.22;;;18.20;99.90;;;-144.05;64.18;56865.81;5077646;28;20084;-84
2023/07/11 00:25:57;;;;;;;6.10;3.28;;;18.30;99.90;;;-144.05;63.80;56872.19;5056478;28;20030;-85
2023/07/11 00:28:23;;;;;;;7.22;2.85;;;18.40;99.90;;;-144.05;63.52;56893.44;5056363;28;20035;-83
2023/07/11 00:30:50;;;;;;;4.82;2.97;;;18.40;99.90;;;-144.05;63.30;56850.97;5058208;28;20328;-83
2023/07/11 00:33:16;;;;;;;6.53;3.10;;;18.50;99.90;;;-144.05;62.99;56878.56;5057591;28;20052;-82
2023/07/11 00:35:53;;;;;;;14.27;3.35;;;18.50;99.90;;;-144.05;62.83;56887.06;5056440;28;20029;-83
2023/07/11 00:38:20;;;;;;;7.63;3.00;;;18.60;99.90;;;-144.05;62.62;56874.31;5056231;28;20556;-84
2023/07/11 00:40:50;;;;;;;7.30;3.00;;;18.50;99.90;;;-144.05;62.21;56904.06;5056398;28;20395;-84
2023/07/11 00:43:21;;;;;;;6.90;2.97;;;18.50;99.90;;;-144.05;61.99;56889.19;5038154;28;20388;-84
2023/07/11 00:46:06;;;;;;;8.50;2.80;;;18.50;99.90;;;-144.05;61.53;56863.69;5054697;28;20503;-83
2023/07/11 00:48:37;;;;;;;7.75;3.10;;;18.60;99.90;;;-144.05;61.54;56872.19;5040026;28;20037;-86
2023/07/11 00:51:11;;;;;;;7.35;3.55;;;18.60;99.90;;;-144.05;62.21;56870.06;5042600;28;20111;-83
2023/07/11 00:53:43;;;;;;;7.82;3.10;;;18.60;99.90;;;-144.05;62.26;56882.81;5044068;28;20055;-82
2023/07/11 00:56:17;;;;;;;4.28;3.13;;;18.50;99.90;;;-144.05;61.48;56884.94;5054601;28;20032;-84
2023/07/11 00:58:46;;;;;;;8.20;3.47;;;18.50;99.90;;;-144.05;61.37;56893.44;5058870;28;20029;-86
2023/07/11 01:01:15;;;;;;;4.63;2.60;;;18.50;99.90;;;-144.05;61.26;56884.94;5058653;28;20051;-83
2023/07/11 01:03:42;;;;;;;6.88;3.15;;;18.50;99.90;;;-144.05;61.08;56865.81;5062185;28;20021;-86
2023/07/11 01:06:27;;;;;;;5.22;2.83;;;18.50;99.90;;;-144.05;60.77;56882.81;5060730;28;20039;-83
2023/07/11 01:08:56;;;;;;;6.45;3.17;;;18.50;99.90;;;-144.05;60.71;56870.06;5061090;28;20043;-85
2023/07/11 01:11:27;;;;;;;7.72;3.42;;;18.50;99.90;;;-144.05;60.31;56878.56;5059294;28;20021;-84
2023/07/11 01:13:54;;;;;;;6.35;3.03;;;18.50;99.90;;;-144.05;60.63;56891.31;5055807;28;20028;-85
2023/07/11 01:16:20;;;;;;;5.75;3.20;;;18.50;99.90;;;-144.05;60.54;56899.81;5056736;28;20450;-85
2023/07/11 01:18:47;;;;;;;5.93;2.58;;;18.50;99.90;;;-144.05;60.48;56882.81;5057362;28;20107;-84
2023/07/11 01:21:21;;;;;;;7.25;2.83;;;18.40;99.90;;;-144.05;61.87;56901.94;5056276;28;20027;-85
2023/07/11 01:23:47;;;;;;;7.32;3.20;;;18.30;99.90;;;-144.05;62.11;56874.31;5057139;28;20016;-85
2023/07/11 01:26:14;;;;;;;6.40;3.05;;;18.20;99.90;;;-144.05;62.39;56863.69;5045935;28;20115;-85
2023/07/11 01:28:41;;;;;;;8.07;4.07;;;18.10;99.90;;;-144.05;62.35;56895.56;5061601;28;20063;-84
2023/07/11 01:31:07;;;;;;;6.47;3.25;;;18.10;99.90;;;-144.05;62.15;56874.31;5079755;28;20040;-84
2023/07/11 01:33:34;;;;;;;7.38;3.20;;;18.10;99.90;;;-144.05;62.00;56857.34;5077781;28;20024;-82
2023/07/11 01:36:02;;;;;;;6.13;2.97;;;18.10;99.90;;;-144.05;61.99;56876.44;5061293;28;20105;-86
2023/07/11 01:38:28;;;;;;;5.97;2.88;;;18.10;99.90;;;-144.05;62.11;56872.19;5076848;28;20046;-85
2023/07/11 01:40:53;;;;;;;8.48;3.55;;;18.10;99.90;;;-144.05;62.95;56880.69;5078294;28;20166;-86
2023/07/11 01:43:20;;;;;;;9.32;3.22;;;18.00;99.90;;;-144.05;63.04;56891.31;5060434;28;20025;-87
2023/07/11 01:45:46;;;;;;;5.88;3.08;;;17.90;99.90;;;-144.05;63.77;56895.56;5078515;28;20039;-83
2023/07/11 01:48:12;;;;;;;4.97;2.85;;;17.80;99.90;;;-144.05;64.48;56874.31;5060894;28;20034;-85
2023/07/11 01:50:38;;;;;;;7.60;3.20;;;17.70;99.90;;;-144.05;64.40;56897.69;5060052;28;20114;-84
2023/07/11 01:53:04;;;;;;;7.97;3.25;;;17.70;99.90;;;-144.05;64.38;56867.94;5059916;28;20020;-84
2023/07/11 01:55:30;;;;;;;5.15;2.97;;;17.70;99.90;;;-144.05;64.29;56876.44;5078248;28;20434;-84
2023/07/11 01:57:56;;;;;;;7.70;3.25;;;17.70;99.90;;;-144.05;63.05;56878.56;5059264;28;20456;-84
2023/07/11 02:00:22;;;;;;;6.75;2.95;;;17.80;99.90;;;-144.05;62.02;56876.44;5077543;28;20399;-85
2023/07/11 02:02:48;;;;;;;6.40;3.05;;;18.00;99.90;;;-144.05;61.05;56876.44;5078629;28;20040;-83
2023/07/11 02:05:14;;;;;;;7.60;2.58;;;18.10;99.90;;;-144.05;60.07;56876.44;5077709;28;20039;-83
2023/07/11 02:07:41;;;;;;;6.50;2.85;;;18.20;99.90;;;-144.05;59.48;56870.06;5077208;28;20107;-85
2023/07/11 02:10:08;;;;;;;3.35;2.30;;;18.30;99.90;;;-144.05;59.16;56887.06;5059161;28;20123;-84
2023/07/11 02:12:34;;;;;;;8.65;2.70;;;18.40;99.90;;;-144.05;58.78;56904.06;5076501;28;20483;-84
2023/07/11 02:15:01;;;;;;;6.22;2.90;;;18.40;99.90;;;-144.05;58.71;56891.31;5075744;28;20487;-84
2023/07/11 02:17:26;;;;;;;6.55;2.50;;;18.40;99.90;;;-144.05;58.53;56889.19;5075815;28;20480;-84
2023/07/11 02:19:52;;;;;;;5.95;2.38;;;18.50;99.90;;;-144.05;58.36;56884.94;5077463;28;20059;-84
2023/07/11 02:22:18;;;;;;;5.82;2.15;;;18.50;99.90;;;-144.05;58.38;56861.56;5075443;28;20088;-84
2023/07/11 02:24:44;;;;;;;5.30;2.42;;;18.50;99.90;;;-144.05;57.85;56878.56;5077469;28;20029;-83
2023/07/11 02:27:10;;;;;;;8.55;2.67;;;18.50;99.90;;;-144.05;57.75;56859.47;5056288;28;20117;-81
2023/07/11 02:29:36;;;;;;;5.25;2.45;;;18.50;99.90;;;-144.05;57.54;56870.06;5056097;28;20036;-85
2023/07/11 02:32:02;;;;;;;9.20;2.55;;;18.50;99.90;;;-144.05;57.90;56887.06;5057334;28;20115;-81
2023/07/11 02:34:28;;;;;;;5.35;2.58;;;18.50;99.90;;;-144.05;57.83;56889.19;5055918;28;20658;-83
2023/07/11 02:36:54;;;;;;;6.82;2.35;;;18.40;99.90;;;-144.05;57.71;56882.81;5057294;28;20395;-84
2023/07/11 02:39:19;;;;;;;5.53;2.15;;;18.40;99.90;;;-144.05;57.60;56870.06;5057186;28;20048;-84
2023/07/11 02:41:45;;;;;;;6.45;2.88;;;18.40;99.90;;;-144.05;58.17;56870.06;5039255;28;20037;-84
2023/07/11 02:44:11;;;;;;;5.30;2.38;;;18.40;99.90;;;-144.05;58.10;56891.31;5040318;28;20038;-83
2023/07/11 02:46:37;;;;;;;9.98;2.40;;;18.40;99.90;;;-144.05;57.64;56884.94;5060342;28;20032;-83
2023/07/11 02:49:08;;;;;;;6.05;2.38;;;18.40;99.90;;;-144.05;56.83;56887.06;5060424;28;20032;-85
2023/07/11 02:51:35;;;;;;;7.28;2.97;;;18.50;99.90;;;-144.05;56.49;56878.56;5061464;28;20112;-83
2023/07/11 02:54:02;;;;;;;7.30;2.97;;;18.60;99.90;;;-144.05;56.35;56878.56;5060899;28;20025;-84
2023/07/11 02:56:28;;;;;;;4.32;2.13;;;18.60;99.90;;;-144.05;56.43;56867.94;5059705;28;20056;-82
2023/07/11 02:58:54;;;;;;;5.30;2.60;;;18.60;99.90;;;-144.05;56.37;56891.31;5060510;28;20029;-84
2023/07/11 03:01:20;;;;;;;6.38;2.45;;;18.60;99.90;;;-144.05;56.09;56908.31;5060994;28;20021;-84
2023/07/11 03:03:46;;;;;;;5.30;2.53;;;18.60;99.90;;;-144.05;56.32;56882.81;5061565;28;20036;-85
2023/07/11 03:06:12;;;;;;;5.32;2.80;;;18.60;99.90;;;-144.05;56.84;56897.69;5061101;28;20507;-84
2023/07/11 03:08:38;;;;;;;4.95;2.80;;;18.50;99.90;;;-144.05;56.97;56899.81;5061266;28;20108;-87
2023/07/11 03:11:04;;;;;;;6.43;2.42;;;18.50;99.90;;;-144.05;57.02;56891.31;5062009;28;20045;-84
2023/07/11 03:13:30;;;;;;;6.22;2.80;;;18.40;99.90;;;-144.05;57.17;56884.94;5043472;28;20033;-86
2023/07/11 03:16:04;;;;;;;7.00;3.03;;;18.40;99.90;;;-144.05;57.36;56889.19;5061383;28;20088;-83
2023/07/11 03:18:31;;;;;;;8.73;2.65;;;18.30;99.90;;;-144.05;57.41;56914.69;5061939;28;20033;-82
2023/07/11 03:21:01;;;;;;;6.18;2.67;;;18.30;99.90;;;-144.05;57.54;56887.06;5061008;28;20029;-84
2023/07/11 03:23:29;;;;;;;5.03;2.60;;;18.30;99.90;;;-144.05;57.26;56891.31;5042900;28;20399;-84
2023/07/11 03:25:55;;;;;;;6.45;2.80;;;18.30;99.90;;;-144.05;57.35;56895.56;5077102;28;20048;-85
2023/07/11 03:28:22;;;;;;;5.47;2.22;;;18.30;99.90;;;-144.05;56.61;56863.69;5070748;28;20325;-85
2023/07/11 03:30:48;;;;;;;9.48;2.45;;;18.40;99.90;;;-144.05;56.69;56867.94;5064618;28;20063;-85
2023/07/11 03:33:14;;;;;;;6.35;2.53;;;18.40;99.90;;;-144.05;56.64;56878.56;5084153;28;20059;-84
2023/07/11 03:35:40;;;;;;;4.82;2.47;;;18.40;99.90;;;-144.05;56.49;56865.81;5064806;28;20047;-87
2023/07/11 03:38:06;;;;;;;5.53;2.33;;;18.40;99.90;;;-144.05;56.49;56872.19;5082098;28;20029;-83
2023/07/11 03:40:32;;;;;;;4.60;2.60;;;18.40;99.90;;;-144.05;56.38;56878.56;5078772;28;20028;-82
2023/07/11 03:42:59;;;;;;;6.03;2.42;;;18.40;99.90;;;-144.05;56.44;56891.31;5079964;28;20412;-84
2023/07/11 03:45:26;;;;;;;4.88;2.15;;;18.40;99.90;;;-144.05;56.11;56893.44;5079471;28;20125;-82
2023/07/11 03:47:51;;;;;;;4.43;2.40;;;18.50;99.90;;;-144.05;55.89;56887.06;5064984;28;20078;-84
2023/07/11 03:50:17;;;;;;;4.47;2.10;;;18.60;99.90;;;-144.05;55.85;56870.06;5080051;28;20032;-79
2023/07/11 03:52:43;;;;;;;6.38;2.47;;;18.60;99.90;;;-144.05;55.75;56857.34;5083247;28;20043;-80
2023/07/11 03:55:09;;;;;;;5.70;2.45;;;18.60;99.90;;;-144.05;55.63;56884.94;5081862;28;20024;-80
2023/07/11 03:57:35;;;;;;;5.28;2.35;;;18.50;99.90;;;-144.05;55.78;56887.06;5062804;28;20075;-83
2023/07/11 04:00:03;;;;;;;4.35;2.22;;;18.50;99.90;;;-144.05;55.46;56904.06;5080813;28;20344;-85
2023/07/11 04:02:29;;;;;;;3.72;2.20;;;18.60;99.90;;;-144.05;55.43;56880.69;5063414;28;20035;-81
2023/07/11 04:04:55;;;;;;;5.10;1.90;;;18.60;99.90;;;-144.05;55.13;56908.31;5062722;28;20032;-86
2023/07/11 04:07:20;;;;;;;4.32;2.25;;;18.70;99.90;;;-144.05;55.13;56874.31;5063447;28;20025;-83
2023/07/11 04:09:48;;;;;;;3.72;2.10;;;18.70;99.90;;;-144.05;55.05;56891.31;5062448;28;20103;-83
2023/07/11 04:12:13;;;;;;;4.95;2.55;;;18.80;99.90;;;-144.05;54.67;56878.56;5080617;28;20074;-81
2023/07/11 04:14:39;;;;;;;7.00;2.60;;;18.80;99.90;;;-144.05;54.62;56887.06;5081703;28;20036;-82
2023/07/11 04:17:05;;;;;;;4.68;2.40;;;18.90;99.90;;;-144.05;54.88;56887.06;5080676;28;20089;-82
2023/07/11 04:19:31;;;;;;;7.80;2.13;;;18.90;99.90;;;-144.05;54.61;56865.81;5079381;28;20093;-81
2023/07/11 04:21:57;;;;;;;6.55;2.25;;;19.00;99.90;;;-144.05;54.53;56884.94;5079798;28;20020;-85
2023/07/11 04:24:23;;;;;;;7.70;2.10;;;19.00;99.90;;;-144.05;54.42;56895.56;5062366;28;20029;-87
2023/07/11 04:26:48;;;;;;;5.10;1.83;;;19.10;99.90;;;-144.05;54.38;56878.56;5058869;28;20091;-84
2023/07/11 04:29:14;;;;;;;6.13;2.50;;;19.10;99.90;;;-144.05;54.45;56878.56;5060931;28;20499;-84
2023/07/11 04:31:40;;;;;;;4.28;2.45;;;19.10;99.90;;;-144.05;54.39;56887.06;5041310;28;20041;-83
2023/07/11 04:34:06;;;;;;;5.85;2.30;;;19.20;99.90;;;-144.05;54.12;56865.81;5057870;28;20029;-83
2023/07/11 04:36:32;;;;;;;6.38;2.72;;;19.30;99.90;;;-144.05;53.94;56884.94;5057171;28;20025;-80
2023/07/11 04:38:57;;;;;;;3.42;2.30;;;19.40;99.90;;;-144.05;53.88;56910.44;5057376;28;20033;-81
2023/07/11 04:41:23;;;;;;;10.00;2.90;;;19.50;99.90;;;-144.05;53.55;56880.69;5056248;28;20040;-81
2023/07/11 04:43:49;;;;;;;5.65;2.40;;;19.50;99.90;;;-144.05;53.12;56891.31;5057585;28;20025;-86
2023/07/11 04:46:15;;;;;;;6.03;2.47;;;19.60;99.90;;;-144.05;52.87;56901.94;5059472;28;20029;-84
2023/07/11 04:48:41;;;;;;;5.80;2.60;;;19.70;99.90;;;-144.05;52.65;56918.94;5060865;28;20048;-84
2023/07/11 04:51:10;;;;;;;4.78;2.33;;;19.80;99.90;;;-144.05;52.34;56891.31;5061054;28;20025;-84
2023/07/11 04:53:37;;;;;;;3.90;2.10;;;19.90;99.90;;;-144.05;52.06;56895.56;5060385;28;20021;-85
2023/07/11 04:56:09;;;;;;;4.97;2.10;;;20.00;99.90;;;-144.05;52.10;56906.19;5059306;28;20432;-84
2023/07/11 04:58:37;;;;;;;4.78;1.80;;;20.20;99.90;;;-144.05;51.73;56912.56;5060423;28;20417;-87
2023/07/11 05:01:08;;;;;;;3.47;2.28;;;20.30;99.90;;;-144.05;51.23;56921.06;5043795;28;20533;-82
2023/07/11 05:03:35;;;;;;;6.60;2.42;;;20.40;99.90;;;-144.05;51.26;56897.69;5059068;28;20067;-83
2023/07/11 05:06:04;;;;;;;4.70;2.08;;;20.50;99.90;;;-144.05;50.84;56908.31;5042284;28;20123;-83
2023/07/11 05:08:31;;;;;;;5.80;2.33;;;20.60;99.90;;;-144.05;50.74;56921.06;5059186;28;20025;-84
2023/07/11 05:11:07;;;;;;;5.28;2.35;;;20.70;99.90;;;-144.05;50.02;56921.06;5042483;28;20037;-82
2023/07/11 05:13:34;;;;;;;4.03;2.33;;;20.90;99.90;;;-144.05;50.07;56931.66;5058908;28;20025;-85
2023/07/11 05:16:02;;;;;;;4.88;2.33;;;21.00;99.90;;;-144.05;49.51;56925.28;5060863;28;20080;-84
2023/07/11 05:18:28;;;;;;;3.60;2.00;;;21.10;99.90;;;-144.05;49.31;56918.94;5060250;28;20112;-84
2023/07/11 05:20:57;;;;;;;4.60;2.60;;;21.20;99.90;;;-144.05;48.47;56931.66;5059277;28;20025;-83
2023/07/11 05:23:27;;;;;;;3.90;2.40;;;21.40;99.90;;;-144.05;48.52;56944.41;5059639;28;20048;-85
2023/07/11 05:25:54;;;;;;;4.65;2.25;;;21.50;99.90;;;-144.05;48.32;56933.78;5063174;28;20028;-86
2023/07/11 05:28:24;;;;;;;9.43;2.80;;;21.60;99.90;;;-144.05;47.74;56918.94;5061782;28;20033;-84
2023/07/11 05:30:51;;;;;;;5.85;2.65;;;21.70;99.90;;;-144.05;47.75;56916.81;5080401;28;20028;-84
2023/07/11 05:33:18;;;;;;;5.03;2.70;;;21.90;99.90;;;-144.05;47.60;56925.28;5078846;28;20032;-84
2023/07/11 05:35:57;;;;;;;4.40;2.15;;;22.00;99.90;;;-144.05;47.09;56904.06;5063136;28;20032;-86
2023/07/11 05:38:24;;;;;;;4.03;2.25;;;22.10;99.90;;;-144.05;46.66;56921.06;5080421;28;20093;-82
2023/07/11 05:40:50;;;;;;;4.78;2.33;;;22.30;99.90;;;-144.05;46.40;56969.91;5078213;28;20452;-82
2023/07/11 05:43:16;;;;;;;7.07;2.38;;;22.50;99.90;;;-144.05;46.01;56942.28;5077901;28;20116;-83
2023/07/11 05:45:45;;;;;;;4.60;2.50;;;22.60;99.90;;;-144.05;45.87;56948.66;5077278;28;20124;-83
2023/07/11 05:48:11;;;;;;;7.25;2.58;;;22.70;99.90;;;-144.05;45.37;56940.16;5077954;28;20032;-85
2023/07/11 05:50:36;;;;;;;5.45;2.30;;;22.80;99.90;;;-144.05;45.15;56952.91;5077167;28;20119;-83
2023/07/11 05:53:02;;;;;;;15.10;2.45;;;23.00;99.90;;;-144.05;45.74;56952.91;5077784;28;20043;-81
2023/07/11 05:55:28;;;;;;;5.35;2.80;;;23.00;99.90;;;-144.05;44.91;56959.28;5078163;28;20035;-84
2023/07/11 05:57:54;;;;;;;5.07;2.65;;;23.20;99.90;;;-144.05;45.42;56950.78;5059784;28;20028;-82
2023/07/11 06:00:20;;;;;;;4.20;1.83;;;23.30;99.90;;;-144.05;45.11;56952.91;5085078;28;20020;-81
2023/07/11 06:02:46;;;;;;;4.03;2.53;;;23.40;99.90;;;-144.05;44.90;56955.03;5067488;28;20130;-84
2023/07/11 06:05:12;;;;;;;7.53;3.10;;;23.50;99.90;;;-144.05;44.13;56952.91;5078266;28;20483;-84
2023/07/11 06:07:39;;;;;;;4.28;2.40;;;23.70;99.90;;;-144.05;44.88;56978.41;5077956;28;20240;-84
2023/07/11 06:10:06;;;;;;;5.38;2.15;;;23.60;99.90;;;-144.05;44.29;56967.78;5077488;28;20020;-86
2023/07/11 06:12:33;;;;;;;6.47;2.72;;;23.70;99.90;;;-144.05;44.70;56969.91;5090631;28;20028;-86
2023/07/11 06:14:59;;;;;;;7.78;2.28;;;23.70;99.90;;;-144.05;44.94;56980.53;5093115;28;20029;-80
2023/07/11 06:17:27;;;;;;;3.72;2.10;;;23.90;99.90;;;-144.05;44.67;56974.16;5090701;28;20040;-84
2023/07/11 06:19:53;;;;;;;6.80;2.55;;;23.90;99.90;;;-144.05;43.95;56961.41;5070516;28;20471;-83
2023/07/11 06:22:19;;;;;;;4.28;2.45;;;24.10;99.90;;;-144.05;43.67;56969.91;5082964;28;20038;-84
2023/07/11 06:24:46;;;;;;;5.90;2.10;;;24.20;99.90;;;-144.05;42.51;56980.53;5067951;28;20092;-82
2023/07/11 06:27:13;;;;;;;5.03;2.42;;;24.50;99.90;;;-144.05;41.77;56980.53;5068813;28;20033;-83
2023/07/11 06:29:39;;;;;;;5.70;2.08;;;24.70;99.90;;;-144.05;41.51;57008.13;5061334;28;20036;-80
2023/07/11 06:32:06;;;;;;;14.05;2.60;;;24.70;99.90;;;-144.05;42.47;56989.00;5060804;28;20035;-82
2023/07/11 06:34:32;;;;;;;4.88;2.30;;;24.80;99.90;;;-144.05;41.42;56967.78;5060087;28;20094;-84
2023/07/11 06:36:58;;;;;;;7.80;2.42;;;24.80;99.90;;;-144.05;41.52;56984.78;5041725;28;20045;-84
2023/07/11 06:39:25;;;;;;;4.68;2.63;;;25.00;99.90;;;-144.05;41.13;56997.50;5058847;28;20021;-84
2023/07/11 06:41:50;;;;;;;5.00;2.15;;;25.00;99.90;;;-144.05;40.96;56997.50;5058896;28;20029;-86
2023/07/11 06:44:16;;;;;;;8.88;2.45;;;25.10;99.90;;;-144.05;40.88;57001.75;5040307;28;20036;-84
2023/07/11 06:46:42;;;;;;;6.10;2.33;;;25.30;99.90;;;-144.05;40.50;57029.38;5058674;28;20433;-84
2023/07/11 06:49:08;;;;;;;4.78;2.50;;;25.40;99.90;;;-144.05;39.74;57012.38;5058091;28;20041;-85
2023/07/11 06:51:34;;;;;;;5.35;2.50;;;25.50;99.90;;;-144.05;40.37;57006.00;5057038;28;20029;-85
2023/07/11 06:53:59;;;;;;;4.13;2.58;;;25.40;99.90;;;-144.05;40.85;57010.25;5058305;28;20504;-84
2023/07/11 06:56:26;;;;;;;3.53;2.13;;;25.40;99.90;;;-144.05;39.75;57027.25;5056236;28;20097;-82
2023/07/11 06:58:52;;;;;;;4.28;2.25;;;25.60;99.90;;;-144.05;39.70;57035.75;5057670;28;20021;-83
2023/07/11 07:01:22;;;;;;;3.58;2.08;;;25.80;99.90;;;-144.05;39.92;57018.75;5039535;28;20044;-83
2023/07/11 07:03:49;;;;;;;4.00;2.10;;;25.90;99.90;;;-144.05;39.52;57059.09;5057528;28;20023;-83
2023/07/11 07:06:17;;;;;;;4.78;2.38;;;26.20;99.90;;;-144.05;38.84;57059.09;5039356;28;20028;-84
2023/07/11 07:08:43;;;;;;;7.97;2.38;;;26.50;99.90;;;-144.05;39.24;57048.50;5039200;28;20123;-84
2023/07/11 07:11:10;;;;;;;6.32;2.80;;;26.50;99.90;;;-144.05;38.62;57031.50;5039434;28;20036;-84
2023/07/11 07:13:36;;;;;;;4.13;2.20;;;26.70;99.90;;;-144.05;38.52;57035.75;5058650;28;20080;-85
2023/07/11 07:16:02;;;;;;;3.15;2.28;;;26.80;99.90;;;-144.05;37.73;57063.34;5059068;28;20025;-83
2023/07/11 07:18:35;;;;;;;3.35;2.25;;;27.10;99.90;;;-144.05;37.66;57054.88;5038742;28;20109;-82
2023/07/11 07:21:04;;;;;;;6.20;2.67;;;27.10;99.90;;;-144.05;37.86;57065.47;5039199;28;20109;-84
2023/07/11 07:23:33;;;;;;;6.32;2.00;;;27.20;99.90;;;-144.05;37.49;57065.47;5056923;28;20068;-84
2023/07/11 07:26:02;;;;;;;7.68;2.33;;;27.20;99.90;;;-144.05;37.08;57037.88;5043612;28;20051;-82
2023/07/11 07:28:37;;;;;;;3.13;2.00;;;27.20;99.90;;;-144.05;38.30;57056.97;5076579;28;20039;-82
2023/07/11 07:31:05;;;;;;;5.75;2.13;;;27.00;99.90;;;-144.05;36.94;57078.22;5076848;28;20052;-81
2023/07/11 07:33:32;;;;;;;4.10;2.13;;;27.30;99.90;;;-144.05;36.09;57073.97;5077052;28;20590;-81
2023/07/11 07:36:06;;;;;;;3.88;2.20;;;27.30;99.90;;;-144.05;36.76;57048.50;5077113;28;20078;-85
2023/07/11 07:38:34;;;;;;;2.95;1.90;;;27.10;99.90;;;-144.05;35.70;57067.59;5077452;28;20029;-79
2023/07/11 07:41:05;;;;;;;4.13;2.47;;;27.40;99.90;;;-144.05;36.61;57056.97;5078545;28;20029;-82
2023/07/11 07:43:33;;;;;;;3.08;1.73;;;27.30;99.90;;;-144.05;36.30;57040.00;5077060;28;20078;-81
2023/07/11 07:46:03;;;;;;;5.00;2.45;;;27.40;99.70;;;-144.05;36.30;57035.75;5077270;28;20028;-81
2023/07/11 07:48:30;;;;;;;5.80;2.85;;;27.30;99.10;;;-144.05;36.52;57073.97;5076473;28;20036;-81
2023/07/11 07:51:10;;;;;;;2.65;1.92;;;27.30;99.30;;;-144.05;36.31;57056.97;5059662;28;20060;-83
2023/07/11 07:53:37;;;;;;;5.30;2.30;;;27.30;98.80;;;-144.05;35.25;57056.97;5076683;28;20376;-82
2023/07/11 07:56:10;;;;;;;4.85;2.22;;;27.30;97.50;;;-144.05;36.71;57054.88;5076636;28;20043;-85
2023/07/11 07:58:37;;;;;;;3.10;2.00;;;27.10;98.70;;;-144.05;37.31;57046.38;5077523;28;20039;-84
2023/07/11 08:01:04;;;;;;;5.53;2.65;;;27.00;98.90;;;-144.05;36.29;57037.88;5076986;28;20480;-82
2023/07/11 08:03:30;;;;;;;4.40;2.10;;;27.00;98.00;;;-144.05;36.44;57054.88;5076743;28;20028;-81
2023/07/11 08:05:58;;;;;;;4.85;2.30;;;27.20;98.30;;;-144.05;36.11;57059.09;5058133;28;20044;-84
2023/07/11 08:08:24;;;;;;;3.90;2.00;;;27.60;98.60;;;-144.05;35.29;57090.97;5059164;28;20181;-82
2023/07/11 08:10:50;;;;;;;5.95;2.28;;;27.80;97.40;;;-144.05;34.82;57090.97;5077459;28;20028;-81
2023/07/11 08:13:16;;;;;;;3.38;2.33;;;27.90;96.20;;;-144.05;35.31;57120.72;5059976;28;20052;-82
2023/07/11 08:15:42;;;;;;;4.68;2.20;;;28.10;97.10;;;-144.05;35.10;57112.22;5059407;28;20123;-86
2023/07/11 08:18:12;;;;;;;3.53;2.00;;;28.20;96.80;;;-144.05;35.52;57116.47;5059148;28;20036;-80
2023/07/11 08:20:39;;;;;;;4.13;2.00;;;28.40;97.50;;;-144.05;34.98;57114.34;5059324;28;20025;-84
2023/07/11 08:23:05;;;;;;;5.90;2.10;;;28.60;95.90;;;-144.05;34.29;57144.06;5076472;28;20021;-84
2023/07/11 08:25:33;;;;;;;3.03;1.77;;;28.70;95.20;;;-144.05;35.19;57135.56;5057874;28;20123;-84
2023/07/11 08:27:59;;;;;;;5.50;1.90;;;28.60;96.10;;;-144.05;34.08;57103.72;5055243;28;20037;-83
2023/07/11 08:30:25;;;;;;;5.25;1.95;;;28.50;94.50;;;-144.05;35.14;57120.72;5056416;28;20040;-83
2023/07/11 08:32:50;;;;;;;5.03;1.88;;;28.30;95.20;;;-144.05;35.11;57084.59;5045024;28;20083;-79
2023/07/11 08:35:16;;;;;;;2.97;1.92;;;28.20;94.90;;;-144.05;35.29;57088.84;5071477;28;20039;-83
2023/07/11 08:37:42;;;;;;;6.70;2.20;;;28.20;95.30;;;-144.05;34.22;57107.97;5057287;28;20025;-85
2023/07/11 08:40:23;;;;;;;7.25;2.20;;;28.50;93.90;;;-144.05;33.03;57154.69;5039447;28;20439;-85
2023/07/11 08:42:49;;;;;;;2.90;2.00;;;29.10;93.80;;;-144.05;32.83;57199.31;5057500;28;20056;-83
2023/07/11 08:45:24;;;;;;;4.82;2.25;;;29.50;93.40;;;-144.05;33.47;57154.69;5040132;28;20094;-84
2023/07/11 08:47:57;;;;;;;4.50;1.90;;;29.40;93.10;;;-144.05;33.66;57131.31;5056640;28;20033;-85
2023/07/11 08:51:17;;;;;;;5.43;1.92;;;28.60;92.40;;;-144.05;34.59;57097.34;5055704;28;20029;-83
2023/07/11 08:54:18;;;;;;;6.28;2.30;;;28.10;92.70;;;-144.05;33.93;57144.06;5054677;28;20531;-85
2023/07/11 08:56:48;;;;;;;7.93;1.70;;;28.40;93.30;;;-144.05;33.72;57129.22;5056156;28;20025;-83
2023/07/11 08:59:24;;;;;;;5.00;1.77;;;28.60;93.30;;;-144.05;32.78;57156.81;5054303;28;20377;-83
2023/07/11 09:02:33;;;;;;;7.93;2.28;;;28.80;92.30;;;-144.05;32.52;57144.06;5053330;28;20047;-84
2023/07/11 09:05:09;;;;;;;4.47;1.60;;;29.10;92.00;;;-144.05;32.66;57165.31;5054530;28;20510;-82
2023/07/11 09:07:39;;;;;;;;;;;29.50;91.90;;;-144.05;32.41;57203.56;5039429;28;20087;-82
2023/07/11 09:10:52;;;;;;;4.13;1.92;;;30.00;92.30;;;-144.05;30.67;57250.28;5057094;28;19912;-83
2023/07/11 09:13:49;;;;;;;4.53;1.90;;;30.60;89.90;;;-144.05;30.26;57237.53;5057132;28;20025;-81
2023/07/11 09:16:50;;;;;;;4.20;1.70;;;30.90;86.00;;;-144.05;29.52;57280.03;5055371;28;20020;-82
2023/07/11 09:20:44;;;;;;;3.17;1.73;;;31.10;82.50;;;-144.05;30.00;57275.78;5057164;28;20069;-84
2023/07/11 09:23:38;;;;;;;5.57;2.05;;;31.10;82.00;;;-144.05;29.03;57260.91;5018778;28;20065;-84
2023/07/11 09:26:17;;;;;;;5.90;1.92;;;31.20;79.40;;;-144.05;29.85;57250.28;5024506;28;20021;-84
2023/07/11 09:28:45;;;;;;;6.47;2.30;;;30.90;79.20;;;-144.05;30.17;57231.16;5075462;28;20047;-87
2023/07/11 09:31:20;;;;;;;10.00;2.10;;;30.80;79.90;;;-144.05;30.97;57192.94;5077490;28;20025;-83
2023/07/11 09:33:56;;;;;;;5.15;2.25;;;30.40;81.00;;;-144.05;30.11;57214.16;5077884;28;20032;-79
2023/07/11 09:36:30;;;;;;;;;;;30.60;80.40;;;-144.05;30.20;57252.41;5078223;28;20056;-83
2023/07/11 09:39:22;;;;;;;6.70;2.15;;;30.90;81.50;;;-144.05;29.51;57286.38;5078347;28;19909;-84
2023/07/11 09:42:16;;;;;;;7.18;2.28;;;31.00;80.10;;;-144.05;29.65;57199.31;5059414;28;20062;-82
2023/07/11 09:44:57;;;;;;;4.88;2.35;;;30.60;76.20;;;-144.05;30.00;57199.31;5078890;28;20482;-85
2023/07/11 09:47:23;;;;;;;5.65;1.70;;;30.20;76.30;;;-144.05;30.31;57212.03;5078173;28;20111;-82
2023/07/11 09:49:52;;;;;;;6.70;1.80;;;30.40;78.60;;;-144.05;30.04;57169.56;5078134;28;20055;-84
2023/07/11 09:52:27;;;;;;;5.63;2.00;;;30.40;77.50;;;-144.05;29.48;57256.66;5078188;28;20021;-84
2023/07/11 09:54:55;;;;;;;;;;;30.80;77.10;;;-144.05;30.02;57265.16;5078117;28;20491;-83
2023/07/11 09:57:21;;;;;;;4.93;2.20;;;31.00;78.00;;;-144.05;30.23;57205.66;5059002;28;20364;-85
2023/07/11 10:00:04;;;;;;;6.65;2.15;;;30.60;77.20;;;-144.05;29.05;57186.56;5059419;28;20100;-88
2023/07/11 10:02:29;;;;;;;4.15;1.70;;;30.20;73.80;;;-144.05;29.95;57165.31;5077191;28;20052;-84
2023/07/11 10:04:57;;;;;;;5.22;2.10;;;30.30;76.30;;;-144.05;29.98;57207.78;5058956;28;20032;-83
2023/07/11 10:07:30;;;;;;;5.60;1.92;;;30.20;75.60;;;-144.05;30.52;57152.56;5059743;28;20036;-85
2023/07/11 10:10:02;;;;;;;5.10;1.98;;;29.90;75.60;;;-144.05;31.08;57129.22;5077189;28;20111;-83
2023/07/11 10:12:30;;;;;;;5.93;2.20;;;29.40;77.10;;;-144.05;31.70;57118.59;5077054;28;20040;-84
2023/07/11 10:15:02;;;;;;;5.10;2.15;;;28.90;77.70;;;-144.05;31.48;57137.69;5077465;28;20029;-83
2023/07/11 10:17:36;;;;;;;5.53;1.70;;;28.80;78.60;;;-144.05;31.26;57150.44;5077857;28;20051;-85